sensor_id;sensor_type;location;lat;lon;timestamp;temperature;humidity
12264;DHT22;6194;49.010;8.414;2023-09-19T00:01:34;18.20;99.90
12264;DHT22;6194;49.010;8.414;2023-09-19T00:04:00;18.40;99.90
12264;DHT22;6194;49.010;8.414;2023-09-19T00:06:29;18.50;99.90
12264;DHT22;6194;49.010;8.414;2023-09-19T00:08:57;18.40;99.90
12264;DHT22;6194;49.010;8.414;2023-09-19T00:11:24;18.60;99.90
12264;DHT22;6194;49.010;8.414;2023-09-19T00:13:52;18.60;99.90
12264;DHT22;6194;49.010;8.414;2023-09-19T00:16:18;18.40;99.90
12264;DHT22;6194;49.010;8.414;2023-09-19T00:18:44;18.30;99.90
12264;DHT22;6194;49.010;8.414;2023-09-19T00:21:10;18.10;99.90
12264;DHT22;6194;49.010;8.414;2023-09-19T00:23:36;18.00;99.90
12264;DHT22;6194;49.010;8.414;2023-09-19T00:26:01;17.90;99.90
12264;DHT22;6194;49.010;8.414;2023-09-19T00:28:28;17.90;99.90
12264;DHT22;6194;49.010;8.414;2023-09-19T00:30:54;18.00;99.90
12264;DHT22;6194;49.010;8.414;2023-09-19T00:33:21;18.00;99.90
12264;DHT22;6194;49.010;8.414;2023-09-19T00:35:53;18.20;99.90
12264;DHT22;6194;49.010;8.414;2023-09-19T00:38:21;18.10;99.90
12264;DHT22;6194;49.010;8.414;2023-09-19T00:40:49;18.10;99.90
12264;DHT22;6194;49.010;8.414;2023-09-19T00:43:16;18.00;99.90
12264;DHT22;6194;49.010;8.414;2023-09-19T00:45:44;18.00;99.90
12264;DHT22;6194;49.010;8.414;2023-09-19T00:48:14;18.00;99.90
12264;DHT22;6194;49.010;8.414;2023-09-19T00:50:42;18.20;99.90
12264;DHT22;6194;49.010;8.414;2023-09-19T00:53:09;18.20;99.90
12264;DHT22;6194;49.010;8.414;2023-09-19T00:55:36;18.30;99.90
12264;DHT22;6194;49.010;8.414;2023-09-19T00:58:03;18.30;99.90
12264;DHT22;6194;49.010;8.414;2023-09-19T01:00:29;18.30;99.90
12264;DHT22;6194;49.010;8.414;2023-09-19T01:02:55;18.50;99.90
12264;DHT22;6194;49.010;8.414;2023-09-19T01:05:21;18.50;99.90
12264;DHT22;6194;49.010;8.414;2023-09-19T01:07:46;18.50;99.90
12264;DHT22;6194;49.010;8.414;2023-09-19T01:10:17;18.60;99.90
12264;DHT22;6194;49.010;8.414;2023-09-19T01:30:44;18.70;99.90
12264;DHT22;6194;49.010;8.414;2023-09-19T01:33:09;18.70;99.90
12264;DHT22;6194;49.010;8.414;2023-09-19T01:35:40;18.50;99.90
12264;DHT22;6194;49.010;8.414;2023-09-19T01:38:08;18.60;99.90
12264;DHT22;6194;49.010;8.414;2023-09-19T01:40:41;18.50;99.90
12264;DHT22;6194;49.010;8.414;2023-09-19T01:43:18;18.40;99.90
12264;DHT22;6194;49.010;8.414;2023-09-19T01:46:04;18.50;99.90
12264;DHT22;6194;49.010;8.414;2023-09-19T01:54:33;18.50;99.90
12264;DHT22;6194;49.010;8.414;2023-09-19T02:00:02;18.60;99.90
12264;DHT22;6194;49.010;8.414;2023-09-19T02:02:35;18.60;99.90
12264;DHT22;6194;49.010;8.414;2023-09-19T02:05:02;18.70;99.90
12264;DHT22;6194;49.010;8.414;2023-09-19T02:07:29;18.80;99.90
12264;DHT22;6194;49.010;8.414;2023-09-19T02:09:59;18.90;99.90
12264;DHT22;6194;49.010;8.414;2023-09-19T02:12:26;19.00;99.90
12264;DHT22;6194;49.010;8.414;2023-09-19T02:14:52;18.90;99.90
12264;DHT22;6194;49.010;8.414;2023-09-19T02:17:18;18.90;99.90
12264;DHT22;6194;49.010;8.414;2023-09-19T02:19:44;18.90;99.90
12264;DHT22;6194;49.010;8.414;2023-09-19T02:22:10;18.90;99.90
12264;DHT22;6194;49.010;8.414;2023-09-19T02:24:38;19.00;99.90
12264;DHT22;6194;49.010;8.414;2023-09-19T02:27:04;18.90;99.90
12264;DHT22;6194;49.010;8.414;2023-09-19T02:29:31;18.90;99.90
12264;DHT22;6194;49.010;8.414;2023-09-19T02:31:56;18.80;99.90
12264;DHT22;6194;49.010;8.414;2023-09-19T02:34:22;18.90;99.90
12264;DHT22;6194;49.010;8.414;2023-09-19T02:36:48;18.90;99.90
12264;DHT22;6194;49.010;8.414;2023-09-19T02:39:14;18.80;99.90
12264;DHT22;6194;49.010;8.414;2023-09-19T02:41:43;18.70;99.90
12264;DHT22;6194;49.010;8.414;2023-09-19T02:44:08;18.60;99.90
12264;DHT22;6194;49.010;8.414;2023-09-19T02:46:34;18.70;99.90
12264;DHT22;6194;49.010;8.414;2023-09-19T02:49:03;18.70;99.90
12264;DHT22;6194;49.010;8.414;2023-09-19T02:51:32;18.60;99.90
12264;DHT22;6194;49.010;8.414;2023-09-19T02:53:59;18.60;99.90
12264;DHT22;6194;49.010;8.414;2023-09-19T02:56:28;18.60;99.90
12264;DHT22;6194;49.010;8.414;2023-09-19T02:58:53;18.60;99.90
12264;DHT22;6194;49.010;8.414;2023-09-19T03:01:20;18.70;99.90
12264;DHT22;6194;49.010;8.414;2023-09-19T03:03:46;18.60;99.90
12264;DHT22;6194;49.010;8.414;2023-09-19T03:06:12;18.60;99.90
12264;DHT22;6194;49.010;8.414;2023-09-19T03:08:41;18.80;99.90
12264;DHT22;6194;49.010;8.414;2023-09-19T03:11:09;18.80;99.90
12264;DHT22;6194;49.010;8.414;2023-09-19T03:13:36;18.70;99.90
12264;DHT22;6194;49.010;8.414;2023-09-19T03:16:04;18.70;99.90
12264;DHT22;6194;49.010;8.414;2023-09-19T03:18:32;18.70;99.90
12264;DHT22;6194;49.010;8.414;2023-09-19T03:20:59;18.80;99.90
12264;DHT22;6194;49.010;8.414;2023-09-19T03:23:28;18.80;99.90
12264;DHT22;6194;49.010;8.414;2023-09-19T03:25:55;18.70;99.90
12264;DHT22;6194;49.010;8.414;2023-09-19T03:28:21;18.80;99.90
12264;DHT22;6194;49.010;8.414;2023-09-19T03:31:07;19.50;99.90
12264;DHT22;6194;49.010;8.414;2023-09-19T03:33:33;18.80;99.90
12264;DHT22;6194;49.010;8.414;2023-09-19T03:36:02;18.70;99.90
12264;DHT22;6194;49.010;8.414;2023-09-19T03:38:32;18.80;99.90
12264;DHT22;6194;49.010;8.414;2023-09-19T03:40:58;18.90;99.90
12264;DHT22;6194;49.010;8.414;2023-09-19T03:43:23;18.90;99.90
12264;DHT22;6194;49.010;8.414;2023-09-19T03:45:49;18.90;99.90
12264;DHT22;6194;49.010;8.414;2023-09-19T03:48:16;18.80;99.90
12264;DHT22;6194;49.010;8.414;2023-09-19T03:50:42;18.60;99.90
12264;DHT22;6194;49.010;8.414;2023-09-19T03:53:09;18.50;99.90
12264;DHT22;6194;49.010;8.414;2023-09-19T03:55:35;18.50;99.90
12264;DHT22;6194;49.010;8.414;2023-09-19T03:58:01;18.60;99.90
12264;DHT22;6194;49.010;8.414;2023-09-19T04:00:27;18.30;99.90
12264;DHT22;6194;49.010;8.414;2023-09-19T04:02:53;18.30;99.90
12264;DHT22;6194;49.010;8.414;2023-09-19T04:05:19;18.30;99.90
12264;DHT22;6194;49.010;8.414;2023-09-19T04:07:44;18.50;99.90
12264;DHT22;6194;49.010;8.414;2023-09-19T04:10:10;18.40;99.90
12264;DHT22;6194;49.010;8.414;2023-09-19T04:12:40;18.30;99.90
12264;DHT22;6194;49.010;8.414;2023-09-19T04:15:06;18.20;99.90
12264;DHT22;6194;49.010;8.414;2023-09-19T04:17:38;18.30;99.90
12264;DHT22;6194;49.010;8.414;2023-09-19T04:20:05;18.10;99.90
12264;DHT22;6194;49.010;8.414;2023-09-19T04:22:33;18.00;99.90
12264;DHT22;6194;49.010;8.414;2023-09-19T04:24:58;17.70;99.90
12264;DHT22;6194;49.010;8.414;2023-09-19T04:27:24;17.60;99.90
12264;DHT22;6194;49.010;8.414;2023-09-19T04:29:49;17.50;99.90
12264;DHT22;6194;49.010;8.414;2023-09-19T04:32:16;17.50;99.90
12264;DHT22;6194;49.010;8.414;2023-09-19T04:34:42;17.50;99.90
12264;DHT22;6194;49.010;8.414;2023-09-19T04:37:08;17.40;99.90
12264;DHT22;6194;49.010;8.414;2023-09-19T04:39:34;17.30;99.90
12264;DHT22;6194;49.010;8.414;2023-09-19T04:41:59;17.30;99.90
12264;DHT22;6194;49.010;8.414;2023-09-19T04:44:25;17.30;99.90
12264;DHT22;6194;49.010;8.414;2023-09-19T04:46:51;17.20;99.90
12264;DHT22;6194;49.010;8.414;2023-09-19T04:49:16;17.20;99.90
12264;DHT22;6194;49.010;8.414;2023-09-19T04:51:42;17.20;99.90
12264;DHT22;6194;49.010;8.414;2023-09-19T04:54:08;17.20;99.90
12264;DHT22;6194;49.010;8.414;2023-09-19T04:56:34;17.20;99.90
12264;DHT22;6194;49.010;8.414;2023-09-19T04:59:00;17.20;99.90
12264;DHT22;6194;49.010;8.414;2023-09-19T05:01:26;17.10;99.90
12264;DHT22;6194;49.010;8.414;2023-09-19T05:03:52;17.20;99.90
12264;DHT22;6194;49.010;8.414;2023-09-19T05:06:19;17.10;99.90
12264;DHT22;6194;49.010;8.414;2023-09-19T05:08:47;17.10;99.90
12264;DHT22;6194;49.010;8.414;2023-09-19T05:11:19;17.30;99.90
12264;DHT22;6194;49.010;8.414;2023-09-19T05:13:47;17.20;99.90
12264;DHT22;6194;49.010;8.414;2023-09-19T05:16:12;17.40;99.90
12264;DHT22;6194;49.010;8.414;2023-09-19T05:18:38;17.60;99.90
12264;DHT22;6194;49.010;8.414;2023-09-19T05:21:03;17.80;99.90
12264;DHT22;6194;49.010;8.414;2023-09-19T05:23:29;18.00;99.90
12264;DHT22;6194;49.010;8.414;2023-09-19T05:25:55;18.30;99.90
12264;DHT22;6194;49.010;8.414;2023-09-19T05:28:22;18.20;99.90
12264;DHT22;6194;49.010;8.414;2023-09-19T05:30:48;18.20;99.90
12264;DHT22;6194;49.010;8.414;2023-09-19T05:33:14;18.20;99.90
12264;DHT22;6194;49.010;8.414;2023-09-19T05:35:40;18.10;99.90
12264;DHT22;6194;49.010;8.414;2023-09-19T05:38:07;18.30;99.90
12264;DHT22;6194;49.010;8.414;2023-09-19T05:40:38;18.30;99.90
12264;DHT22;6194;49.010;8.414;2023-09-19T05:43:06;18.40;99.90
12264;DHT22;6194;49.010;8.414;2023-09-19T05:45:31;18.50;99.90
12264;DHT22;6194;49.010;8.414;2023-09-19T05:48:08;18.40;99.90
12264;DHT22;6194;49.010;8.414;2023-09-19T05:50:34;18.50;99.90
12264;DHT22;6194;49.010;8.414;2023-09-19T05:52:59;18.70;99.90
12264;DHT22;6194;49.010;8.414;2023-09-19T05:55:25;18.90;99.90
12264;DHT22;6194;49.010;8.414;2023-09-19T05:57:51;18.80;99.90
12264;DHT22;6194;49.010;8.414;2023-09-19T06:00:19;18.70;99.90
12264;DHT22;6194;49.010;8.414;2023-09-19T06:05:18;18.70;99.90
12264;DHT22;6194;49.010;8.414;2023-09-19T06:07:44;18.80;99.90
12264;DHT22;6194;49.010;8.414;2023-09-19T06:10:13;18.80;99.90
12264;DHT22;6194;49.010;8.414;2023-09-19T06:12:40;18.70;99.90
12264;DHT22;6194;49.010;8.414;2023-09-19T06:15:11;18.50;99.90
12264;DHT22;6194;49.010;8.414;2023-09-19T06:17:46;18.30;99.90
12264;DHT22;6194;49.010;8.414;2023-09-19T06:20:12;18.20;99.90
12264;DHT22;6194;49.010;8.414;2023-09-19T06:22:42;18.10;99.90
12264;DHT22;6194;49.010;8.414;2023-09-19T06:25:12;18.20;99.90
12264;DHT22;6194;49.010;8.414;2023-09-19T06:27:41;18.30;99.90
12264;DHT22;6194;49.010;8.414;2023-09-19T06:30:10;18.40;99.90
12264;DHT22;6194;49.010;8.414;2023-09-19T06:32:40;18.50;99.90
12264;DHT22;6194;49.010;8.414;2023-09-19T06:35:09;18.50;99.90
12264;DHT22;6194;49.010;8.414;2023-09-19T06:37:40;18.50;99.90
12264;DHT22;6194;49.010;8.414;2023-09-19T06:40:13;18.30;99.90
12264;DHT22;6194;49.010;8.414;2023-09-19T06:43:00;18.50;99.90
12264;DHT22;6194;49.010;8.414;2023-09-19T06:45:27;18.90;99.90
12264;DHT22;6194;49.010;8.414;2023-09-19T06:47:56;18.70;99.90
12264;DHT22;6194;49.010;8.414;2023-09-19T06:50:23;18.70;99.90
12264;DHT22;6194;49.010;8.414;2023-09-19T06:52:51;18.80;99.90
12264;DHT22;6194;49.010;8.414;2023-09-19T06:55:21;18.80;99.90
12264;DHT22;6194;49.010;8.414;2023-09-19T06:57:50;18.80;99.90
12264;DHT22;6194;49.010;8.414;2023-09-19T07:00:16;18.70;99.90
12264;DHT22;6194;49.010;8.414;2023-09-19T07:03:03;18.60;99.90
12264;DHT22;6194;49.010;8.414;2023-09-19T07:05:33;18.40;99.90
12264;DHT22;6194;49.010;8.414;2023-09-19T07:07:59;18.20;99.90
12264;DHT22;6194;49.010;8.414;2023-09-19T07:10:26;18.10;99.90
12264;DHT22;6194;49.010;8.414;2023-09-19T07:15:28;18.30;99.90
12264;DHT22;6194;49.010;8.414;2023-09-19T07:17:56;18.50;99.90
12264;DHT22;6194;49.010;8.414;2023-09-19T07:20:23;18.40;99.90
12264;DHT22;6194;49.010;8.414;2023-09-19T07:22:51;18.70;99.90
12264;DHT22;6194;49.010;8.414;2023-09-19T07:25:16;18.80;99.90
12264;DHT22;6194;49.010;8.414;2023-09-19T07:27:42;19.00;99.90
12264;DHT22;6194;49.010;8.414;2023-09-19T07:30:09;18.90;99.90
12264;DHT22;6194;49.010;8.414;2023-09-19T07:32:35;18.90;99.90
12264;DHT22;6194;49.010;8.414;2023-09-19T07:35:05;18.90;99.90
12264;DHT22;6194;49.010;8.414;2023-09-19T07:37:31;18.60;99.90
12264;DHT22;6194;49.010;8.414;2023-09-19T07:40:02;18.60;99.90
12264;DHT22;6194;49.010;8.414;2023-09-19T07:42:33;18.70;99.90
12264;DHT22;6194;49.010;8.414;2023-09-19T07:45:01;18.70;99.90
12264;DHT22;6194;49.010;8.414;2023-09-19T07:47:26;18.80;99.90
12264;DHT22;6194;49.010;8.414;2023-09-19T07:49:53;19.10;99.90
12264;DHT22;6194;49.010;8.414;2023-09-19T07:52:19;19.10;99.90
12264;DHT22;6194;49.010;8.414;2023-09-19T07:54:47;19.20;99.90
12264;DHT22;6194;49.010;8.414;2023-09-19T07:57:15;19.30;99.90
12264;DHT22;6194;49.010;8.414;2023-09-19T07:59:41;19.40;99.90
12264;DHT22;6194;49.010;8.414;2023-09-19T08:02:08;19.50;99.90
12264;DHT22;6194;49.010;8.414;2023-09-19T08:04:35;19.40;99.90
12264;DHT22;6194;49.010;8.414;2023-09-19T08:07:00;19.10;99.90
12264;DHT22;6194;49.010;8.414;2023-09-19T08:09:29;19.00;99.90
12264;DHT22;6194;49.010;8.414;2023-09-19T08:11:59;19.20;99.90
12264;DHT22;6194;49.010;8.414;2023-09-19T08:14:28;19.50;99.90
12264;DHT22;6194;49.010;8.414;2023-09-19T08:16:57;19.90;99.90
12264;DHT22;6194;49.010;8.414;2023-09-19T08:19:24;20.10;99.90
12264;DHT22;6194;49.010;8.414;2023-09-19T08:21:55;20.20;99.90
12264;DHT22;6194;49.010;8.414;2023-09-19T08:24:27;20.00;99.90
12264;DHT22;6194;49.010;8.414;2023-09-19T08:26:56;20.10;99.90
12264;DHT22;6194;49.010;8.414;2023-09-19T08:29:23;20.10;99.90
12264;DHT22;6194;49.010;8.414;2023-09-19T08:31:58;20.30;99.90
12264;DHT22;6194;49.010;8.414;2023-09-19T08:34:24;20.30;99.90
12264;DHT22;6194;49.010;8.414;2023-09-19T08:36:51;20.40;99.90
12264;DHT22;6194;49.010;8.414;2023-09-19T08:39:18;20.50;99.90
12264;DHT22;6194;49.010;8.414;2023-09-19T08:41:44;20.60;99.90
12264;DHT22;6194;49.010;8.414;2023-09-19T08:44:10;20.80;99.90
12264;DHT22;6194;49.010;8.414;2023-09-19T08:46:40;20.70;99.90
12264;DHT22;6194;49.010;8.414;2023-09-19T08:49:21;20.60;99.90
12264;DHT22;6194;49.010;8.414;2023-09-19T08:51:55;20.50;99.90
12264;DHT22;6194;49.010;8.414;2023-09-19T08:54:32;20.60;99.90
12264;DHT22;6194;49.010;8.414;2023-09-19T08:57:06;20.50;99.90
12264;DHT22;6194;49.010;8.414;2023-09-19T08:59:33;20.40;99.90
12264;DHT22;6194;49.010;8.414;2023-09-19T09:02:02;20.40;99.90
12264;DHT22;6194;49.010;8.414;2023-09-19T09:04:29;20.30;99.90
12264;DHT22;6194;49.010;8.414;2023-09-19T09:06:56;20.40;99.90
12264;DHT22;6194;49.010;8.414;2023-09-19T09:09:23;20.30;99.90
12264;DHT22;6194;49.010;8.414;2023-09-19T09:11:50;20.20;99.90
12264;DHT22;6194;49.010;8.414;2023-09-19T09:14:19;20.30;99.90
12264;DHT22;6194;49.010;8.414;2023-09-19T09:16:46;20.50;99.90
12264;DHT22;6194;49.010;8.414;2023-09-19T09:19:14;20.60;99.90
12264;DHT22;6194;49.010;8.414;2023-09-19T09:21:40;20.50;99.90
12264;DHT22;6194;49.010;8.414;2023-09-19T09:24:28;20.40;99.90
12264;DHT22;6194;49.010;8.414;2023-09-19T09:26:59;20.50;99.90
12264;DHT22;6194;49.010;8.414;2023-09-19T09:34:55;20.60;99.90
12264;DHT22;6194;49.010;8.414;2023-09-19T09:37:22;20.60;99.90
12264;DHT22;6194;49.010;8.414;2023-09-19T09:39:55;20.70;99.90
12264;DHT22;6194;49.010;8.414;2023-09-19T09:42:33;20.70;99.90
12264;DHT22;6194;49.010;8.414;2023-09-19T09:45:21;20.70;99.90
12264;DHT22;6194;49.010;8.414;2023-09-19T09:48:24;20.60;99.90
12264;DHT22;6194;49.010;8.414;2023-09-19T09:51:05;20.40;99.90
12264;DHT22;6194;49.010;8.414;2023-09-19T09:53:33;20.60;99.90
12264;DHT22;6194;49.010;8.414;2023-09-19T09:55:59;20.60;99.90
12264;DHT22;6194;49.010;8.414;2023-09-19T09:58:25;20.90;99.90
12264;DHT22;6194;49.010;8.414;2023-09-19T10:00:56;20.90;99.90
12264;DHT22;6194;49.010;8.414;2023-09-19T10:03:34;21.10;99.90
12264;DHT22;6194;49.010;8.414;2023-09-19T10:06:06;21.20;99.90
12264;DHT22;6194;49.010;8.414;2023-09-19T10:08:36;21.20;99.90
12264;DHT22;6194;49.010;8.414;2023-09-19T10:11:15;21.20;99.90
12264;DHT22;6194;49.010;8.414;2023-09-19T10:13:42;21.50;99.90
12264;DHT22;6194;49.010;8.414;2023-09-19T10:16:10;21.90;99.90
12264;DHT22;6194;49.010;8.414;2023-09-19T10:18:36;22.20;99.90
12264;DHT22;6194;49.010;8.414;2023-09-19T10:21:04;22.00;99.90
12264;DHT22;6194;49.010;8.414;2023-09-19T10:23:32;21.80;99.90
12264;DHT22;6194;49.010;8.414;2023-09-19T10:26:02;21.50;99.90
12264;DHT22;6194;49.010;8.414;2023-09-19T10:28:30;21.20;99.90
12264;DHT22;6194;49.010;8.414;2023-09-19T10:30:57;21.20;99.90
12264;DHT22;6194;49.010;8.414;2023-09-19T10:33:25;21.30;99.90
12264;DHT22;6194;49.010;8.414;2023-09-19T10:35:59;21.30;99.90
12264;DHT22;6194;49.010;8.414;2023-09-19T10:38:26;21.50;99.90
12264;DHT22;6194;49.010;8.414;2023-09-19T10:40:55;21.80;99.90
12264;DHT22;6194;49.010;8.414;2023-09-19T10:43:26;22.00;99.90
12264;DHT22;6194;49.010;8.414;2023-09-19T10:46:00;22.00;99.90
12264;DHT22;6194;49.010;8.414;2023-09-19T10:48:26;22.30;99.90
12264;DHT22;6194;49.010;8.414;2023-09-19T10:51:12;22.50;99.90
12264;DHT22;6194;49.010;8.414;2023-09-19T10:53:55;22.60;99.90
12264;DHT22;6194;49.010;8.414;2023-09-19T10:56:36;22.50;99.90
12264;DHT22;6194;49.010;8.414;2023-09-19T10:59:15;22.60;99.90
12264;DHT22;6194;49.010;8.414;2023-09-19T11:01:52;22.40;99.90
12264;DHT22;6194;49.010;8.414;2023-09-19T11:04:23;22.30;99.90
12264;DHT22;6194;49.010;8.414;2023-09-19T11:07:10;22.40;99.90
12264;DHT22;6194;49.010;8.414;2023-09-19T11:09:57;22.30;99.90
12264;DHT22;6194;49.010;8.414;2023-09-19T11:26:50;22.50;99.90
12264;DHT22;6194;49.010;8.414;2023-09-19T11:29:30;22.50;99.90
12264;DHT22;6194;49.010;8.414;2023-09-19T11:31:59;22.60;99.90
12264;DHT22;6194;49.010;8.414;2023-09-19T11:42:48;23.30;99.90
12264;DHT22;6194;49.010;8.414;2023-09-19T11:48:23;23.30;99.90
12264;DHT22;6194;49.010;8.414;2023-09-19T11:50:53;23.40;99.90
12264;DHT22;6194;49.010;8.414;2023-09-19T11:53:19;23.40;99.90
12264;DHT22;6194;49.010;8.414;2023-09-19T11:55:45;23.20;99.90
12264;DHT22;6194;49.010;8.414;2023-09-19T11:58:18;23.10;99.90
12264;DHT22;6194;49.010;8.414;2023-09-19T12:00:45;22.70;99.90
12264;DHT22;6194;49.010;8.414;2023-09-19T12:03:19;22.60;99.90
12264;DHT22;6194;49.010;8.414;2023-09-19T12:05:44;22.60;99.90
12264;DHT22;6194;49.010;8.414;2023-09-19T12:08:10;22.50;99.90
12264;DHT22;6194;49.010;8.414;2023-09-19T12:10:49;22.40;99.90
12264;DHT22;6194;49.010;8.414;2023-09-19T12:13:18;22.30;99.90
12264;DHT22;6194;49.010;8.414;2023-09-19T12:15:44;22.30;99.90
12264;DHT22;6194;49.010;8.414;2023-09-19T12:18:31;22.40;99.90
12264;DHT22;6194;49.010;8.414;2023-09-19T12:20:58;22.50;99.90
12264;DHT22;6194;49.010;8.414;2023-09-19T12:23:25;22.50;99.90
12264;DHT22;6194;49.010;8.414;2023-09-19T12:25:52;22.60;99.90
12264;DHT22;6194;49.010;8.414;2023-09-19T12:28:19;22.70;99.90
12264;DHT22;6194;49.010;8.414;2023-09-19T12:30:48;22.80;99.90
12264;DHT22;6194;49.010;8.414;2023-09-19T12:33:19;22.90;99.90
12264;DHT22;6194;49.010;8.414;2023-09-19T12:35:45;23.10;99.90
12264;DHT22;6194;49.010;8.414;2023-09-19T12:38:28;23.20;99.90
12264;DHT22;6194;49.010;8.414;2023-09-19T12:40:55;23.20;99.90
12264;DHT22;6194;49.010;8.414;2023-09-19T12:43:22;23.40;99.90
12264;DHT22;6194;49.010;8.414;2023-09-19T12:45:48;23.40;99.90
12264;DHT22;6194;49.010;8.414;2023-09-19T12:48:22;23.40;99.90
12264;DHT22;6194;49.010;8.414;2023-09-19T12:51:02;23.30;99.90
12264;DHT22;6194;49.010;8.414;2023-09-19T12:56:06;23.10;99.90
12264;DHT22;6194;49.010;8.414;2023-09-19T12:58:34;23.10;99.90
12264;DHT22;6194;49.010;8.414;2023-09-19T13:01:00;23.10;99.90
12264;DHT22;6194;49.010;8.414;2023-09-19T13:03:30;23.00;99.90
12264;DHT22;6194;49.010;8.414;2023-09-19T13:06:02;23.00;99.90
12264;DHT22;6194;49.010;8.414;2023-09-19T13:08:36;23.10;99.90
12264;DHT22;6194;49.010;8.414;2023-09-19T13:11:14;23.10;99.90
12264;DHT22;6194;49.010;8.414;2023-09-19T13:13:46;23.10;99.90
12264;DHT22;6194;49.010;8.414;2023-09-19T13:16:14;23.30;99.90
12264;DHT22;6194;49.010;8.414;2023-09-19T13:18:49;23.50;99.90
12264;DHT22;6194;49.010;8.414;2023-09-19T13:21:29;23.70;99.90
12264;DHT22;6194;49.010;8.414;2023-09-19T13:24:21;23.80;99.90
12264;DHT22;6194;49.010;8.414;2023-09-19T13:26:48;23.70;99.90
12264;DHT22;6194;49.010;8.414;2023-09-19T13:29:15;23.70;99.90
12264;DHT22;6194;49.010;8.414;2023-09-19T13:31:49;23.70;99.90
12264;DHT22;6194;49.010;8.414;2023-09-19T13:34:15;23.80;99.90
12264;DHT22;6194;49.010;8.414;2023-09-19T13:36:43;23.90;99.90
12264;DHT22;6194;49.010;8.414;2023-09-19T13:39:09;23.90;99.90
12264;DHT22;6194;49.010;8.414;2023-09-19T13:41:35;23.90;99.90
12264;DHT22;6194;49.010;8.414;2023-09-19T13:44:04;23.90;99.90
12264;DHT22;6194;49.010;8.414;2023-09-19T13:46:30;23.90;99.90
12264;DHT22;6194;49.010;8.414;2023-09-19T13:49:01;23.90;99.90
12264;DHT22;6194;49.010;8.414;2023-09-19T13:51:30;23.90;99.90
12264;DHT22;6194;49.010;8.414;2023-09-19T13:53:55;23.80;99.90
12264;DHT22;6194;49.010;8.414;2023-09-19T13:56:21;23.90;99.90
12264;DHT22;6194;49.010;8.414;2023-09-19T13:58:47;23.90;99.90
12264;DHT22;6194;49.010;8.414;2023-09-19T14:01:13;24.00;99.90
12264;DHT22;6194;49.010;8.414;2023-09-19T14:03:39;24.30;99.90
12264;DHT22;6194;49.010;8.414;2023-09-19T14:06:05;24.30;99.90
12264;DHT22;6194;49.010;8.414;2023-09-19T14:08:31;24.30;99.90
12264;DHT22;6194;49.010;8.414;2023-09-19T14:10:59;24.30;99.90
12264;DHT22;6194;49.010;8.414;2023-09-19T14:13:24;24.40;99.90
12264;DHT22;6194;49.010;8.414;2023-09-19T14:15:51;24.60;99.90
12264;DHT22;6194;49.010;8.414;2023-09-19T14:18:16;24.60;99.90
12264;DHT22;6194;49.010;8.414;2023-09-19T14:20:43;24.60;99.90
12264;DHT22;6194;49.010;8.414;2023-09-19T14:23:09;24.30;99.90
12264;DHT22;6194;49.010;8.414;2023-09-19T14:25:35;24.20;99.90
12264;DHT22;6194;49.010;8.414;2023-09-19T14:28:02;24.20;99.90
12264;DHT22;6194;49.010;8.414;2023-09-19T14:30:27;24.30;99.90
12264;DHT22;6194;49.010;8.414;2023-09-19T14:32:53;24.20;99.90
12264;DHT22;6194;49.010;8.414;2023-09-19T14:35:19;24.10;99.90
12264;DHT22;6194;49.010;8.414;2023-09-19T14:37:44;24.10;99.90
12264;DHT22;6194;49.010;8.414;2023-09-19T14:40:11;24.00;99.90
12264;DHT22;6194;49.010;8.414;2023-09-19T14:42:39;24.00;99.90
12264;DHT22;6194;49.010;8.414;2023-09-19T14:45:05;24.10;99.90
12264;DHT22;6194;49.010;8.414;2023-09-19T14:47:32;24.20;99.90
12264;DHT22;6194;49.010;8.414;2023-09-19T14:50:02;24.30;99.90
12264;DHT22;6194;49.010;8.414;2023-09-19T14:52:32;24.10;99.90
12264;DHT22;6194;49.010;8.414;2023-09-19T14:54:59;24.10;99.90
12264;DHT22;6194;49.010;8.414;2023-09-19T14:57:24;24.00;99.90
12264;DHT22;6194;49.010;8.414;2023-09-19T14:59:51;24.00;99.90
12264;DHT22;6194;49.010;8.414;2023-09-19T15:02:17;23.90;99.90
12264;DHT22;6194;49.010;8.414;2023-09-19T15:04:42;23.90;99.90
12264;DHT22;6194;49.010;8.414;2023-09-19T15:07:12;23.90;99.90
12264;DHT22;6194;49.010;8.414;2023-09-19T15:09:41;23.80;99.90
12264;DHT22;6194;49.010;8.414;2023-09-19T15:12:06;23.70;99.90
12264;DHT22;6194;49.010;8.414;2023-09-19T15:14:32;23.70;99.90
12264;DHT22;6194;49.010;8.414;2023-09-19T15:16:58;23.60;99.90
12264;DHT22;6194;49.010;8.414;2023-09-19T15:19:23;23.60;99.90
12264;DHT22;6194;49.010;8.414;2023-09-19T15:21:49;23.60;99.90
12264;DHT22;6194;49.010;8.414;2023-09-19T15:24:14;23.60;99.90
12264;DHT22;6194;49.010;8.414;2023-09-19T15:26:43;23.60;99.90
12264;DHT22;6194;49.010;8.414;2023-09-19T15:29:10;23.60;99.90
12264;DHT22;6194;49.010;8.414;2023-09-19T15:31:36;23.60;99.90
12264;DHT22;6194;49.010;8.414;2023-09-19T15:34:02;23.50;99.90
12264;DHT22;6194;49.010;8.414;2023-09-19T15:36:28;23.50;99.90
12264;DHT22;6194;49.010;8.414;2023-09-19T15:39:03;23.50;99.90
12264;DHT22;6194;49.010;8.414;2023-09-19T15:41:35;23.40;99.90
12264;DHT22;6194;49.010;8.414;2023-09-19T15:44:03;23.40;99.90
12264;DHT22;6194;49.010;8.414;2023-09-19T15:46:30;23.40;99.90
12264;DHT22;6194;49.010;8.414;2023-09-19T15:48:57;23.40;99.90
12264;DHT22;6194;49.010;8.414;2023-09-19T15:51:23;23.40;99.90
12264;DHT22;6194;49.010;8.414;2023-09-19T15:53:50;23.40;99.90
12264;DHT22;6194;49.010;8.414;2023-09-19T15:56:17;23.40;99.90
12264;DHT22;6194;49.010;8.414;2023-09-19T15:58:47;23.40;99.90
12264;DHT22;6194;49.010;8.414;2023-09-19T16:01:14;23.30;99.90
12264;DHT22;6194;49.010;8.414;2023-09-19T16:03:47;23.30;99.90
12264;DHT22;6194;49.010;8.414;2023-09-19T16:06:14;23.30;99.90
12264;DHT22;6194;49.010;8.414;2023-09-19T16:08:48;23.40;99.90
12264;DHT22;6194;49.010;8.414;2023-09-19T16:11:15;23.30;99.90
12264;DHT22;6194;49.010;8.414;2023-09-19T16:13:42;23.20;99.90
12264;DHT22;6194;49.010;8.414;2023-09-19T16:16:09;23.10;99.90
12264;DHT22;6194;49.010;8.414;2023-09-19T16:18:48;23.10;99.90
12264;DHT22;6194;49.010;8.414;2023-09-19T16:21:15;23.10;99.90
12264;DHT22;6194;49.010;8.414;2023-09-19T16:23:45;23.10;99.90
12264;DHT22;6194;49.010;8.414;2023-09-19T16:26:10;23.10;99.90
12264;DHT22;6194;49.010;8.414;2023-09-19T16:28:39;23.20;99.90
12264;DHT22;6194;49.010;8.414;2023-09-19T16:31:05;23.20;99.90
12264;DHT22;6194;49.010;8.414;2023-09-19T16:33:33;23.20;99.90
12264;DHT22;6194;49.010;8.414;2023-09-19T16:35:59;23.20;99.90
12264;DHT22;6194;49.010;8.414;2023-09-19T16:38:26;23.20;99.90
12264;DHT22;6194;49.010;8.414;2023-09-19T16:40:56;23.20;99.90
12264;DHT22;6194;49.010;8.414;2023-09-19T16:43:26;23.10;99.90
12264;DHT22;6194;49.010;8.414;2023-09-19T16:45:59;23.20;99.90
12264;DHT22;6194;49.010;8.414;2023-09-19T16:48:26;23.10;99.90
12264;DHT22;6194;49.010;8.414;2023-09-19T16:50:53;23.10;99.90
12264;DHT22;6194;49.010;8.414;2023-09-19T16:53:20;23.00;99.90
12264;DHT22;6194;49.010;8.414;2023-09-19T16:55:46;22.80;99.90
12264;DHT22;6194;49.010;8.414;2023-09-19T16:58:13;22.70;99.90
12264;DHT22;6194;49.010;8.414;2023-09-19T17:00:39;22.70;99.90